Queen Of Nanaimo — VCNX — position and weather

sailwx.info

Track history (hours):
 
Tides and Currents Weather Stations Pressure Air Temp Water Temp Dewpoint Dewpoint Depression Visibility Wind Speed Wind Dir Waves Ship Positions

Queen Of Nanaimo

Last reported at 2016-Feb-08 01:33 UTC. Time now 2016-Feb-08 02:03 UTC.
Position N 48°56' W 123°13'.

Length 130 m; draft 4 m.

Type: Passenger vessel. MMSI: 316001254.

Date/timePositionNaut miles runAvg speedWind from/ knotsBaromVisibWave heightAir tempDewpointWater temp
2016-Feb-08 01:33N 48°56' W 123°13'7 7.2
2016-Feb-08 00:33N 48°52' W 123°21'4 4.1
2016-Feb-07 23:33N 48°51' W 123°27'0 0.0
2016-Feb-07 22:33N 48°51' W 123°27'6 5.9
2016-Feb-07 21:34N 48°48' W 123°19'3 3.5
2016-Feb-07 20:33N 48°51' W 123°21'8 7.7
2016-Feb-07 19:34N 48°57' W 123°13'5 4.9
2016-Feb-07 18:34N 49°00' W 123°08'9 9.5
2016-Feb-07 17:33N 48°53' W 123°17'3 2.9
2016-Feb-07 16:33N 48°51' W 123°20'3 3.3
2016-Feb-07 15:33N 48°49' W 123°24'3 3.1
2016-Feb-07 14:33N 48°51' W 123°27'0 0.0
2016-Feb-07 13:33N 48°51' W 123°27'0 0.0
2016-Feb-07 12:33N 48°51' W 123°27'0 0.0
2016-Feb-07 11:33N 48°51' W 123°27'0 0.0
2016-Feb-07 10:33N 48°51' W 123°27'0 0.0
2016-Feb-07 09:31N 48°51' W 123°27'0 0.0
2016-Feb-07 08:33N 48°51' W 123°27'0 0.0
2016-Feb-07 07:33N 48°51' W 123°27'4 3.5
2016-Feb-07 06:34N 48°51' W 123°21'2 2.3
2016-Feb-07 05:34N 48°53' W 123°19'1110.6
2016-Feb-07 04:33N 49°00' W 123°08'0 0.0
2016-Feb-07 03:34N 49°00' W 123°08'0 0.3
2016-Feb-07 02:33N 49°00' W 123°08'1010.4
2016-Feb-07 01:33N 48°53' W 123°19'4 4.1
2016-Feb-07 00:33N 48°49' W 123°20'5 5.1
2016-Feb-06 23:33N 48°51' W 123°27'0 0.0
2016-Feb-06 22:33N 48°51' W 123°27'0 0.1
2016-Feb-06 21:34N 48°51' W 123°27'1212.3
2016-Feb-06 20:33N 48°58' W 123°12'2 1.6
2016-Feb-06 19:33N 48°59' W 123°09'1010.4
2016-Feb-06 18:34N 48°51' W 123°20'2 1.9
2016-Feb-06 17:34N 48°53' W 123°19'1110.7
2016-Feb-06 16:34N 49°00' W 123°08'3 3.3
2016-Feb-06 15:33N 48°57' W 123°10'1212.4
2016-Feb-06 14:34N 48°51' W 123°27'0 0.2
2016-Feb-06 13:33N 48°51' W 123°27'0 0.0
2016-Feb-06 12:33N 48°51' W 123°27'0 0.0
2016-Feb-06 11:33N 48°51' W 123°27'0 0.0
2016-Feb-06 07:33N 48°51' W 123°27'0 0.4
2016-Feb-06 06:33N 48°51' W 123°26'4 3.9
2016-Feb-06 05:33N 48°50' W 123°20'3 2.5
2016-Feb-06 04:33N 48°53' W 123°19'1010.4
2016-Feb-06 03:33N 49°00' W 123°08'0 0.4
2016-Feb-06 02:33N 49°00' W 123°08'1110.6
2016-Feb-06 01:33N 48°53' W 123°19'2 1.9
2016-Feb-06 00:33N 48°51' W 123°20'3 3.5
2016-Feb-05 23:34N 48°49' W 123°24'2 2.4
2016-Feb-05 22:33N 48°51' W 123°27'0 0.0
2016-Feb-05 21:33N 48°51' W 123°27'6 6.0
2016-Feb-05 20:33N 48°48' W 123°19'5 4.6
2016-Feb-05 19:34N 48°53' W 123°18'9 9.4
2016-Feb-05 18:34N 48°60' W 123°09'1 1.1
2016-Feb-05 17:33N 49°00' W 123°08'10 9.9
2016-Feb-05 16:34N 48°53' W 123°18'3 2.6
2016-Feb-05 15:33N 48°51' W 123°20'3 3.4
2016-Feb-05 14:34N 48°49' W 123°24'2 2.4
2016-Feb-05 13:33N 48°51' W 123°27'0 0.0
2016-Feb-05 12:30N 48°51' W 123°27'0 0.0
2016-Feb-05 11:29N 48°51' W 123°27'0 0.0
2016-Feb-05 09:33N 48°51' W 123°27'0 0.0
2016-Feb-05 08:33N 48°51' W 123°27'0 0.0
2016-Feb-05 07:33N 48°51' W 123°27'0 0.0
2016-Feb-05 06:33N 48°51' W 123°27'6 6.0
2016-Feb-05 05:33N 48°48' W 123°19'5 4.8
2016-Feb-05 04:33N 48°53' W 123°19'10 9.6
2016-Feb-05 03:33N 48°60' W 123°09'1 0.9
2016-Feb-05 02:33N 49°00' W 123°08'1110.7
2016-Feb-05 01:33N 48°53' W 123°19'2 1.9
2016-Feb-05 00:33N 48°51' W 123°20'4 3.6
2016-Feb-04 23:34N 48°50' W 123°25'2 1.7
2016-Feb-04 22:33N 48°51' W 123°27'0 0.0
2016-Feb-04 21:33N 48°51' W 123°27'6 6.1
2016-Feb-04 20:34N 48°48' W 123°19'5 4.6
2016-Feb-04 19:34N 48°53' W 123°19'9 9.2
2016-Feb-04 18:34N 48°59' W 123°09'1 1.4
2016-Feb-04 17:33N 49°00' W 123°08'1110.5
2016-Feb-04 16:33N 48°53' W 123°19'2 2.0
2016-Feb-04 15:33N 48°51' W 123°20'4 3.6
2016-Feb-04 14:33N 48°50' W 123°25'2 1.9
2016-Feb-04 13:33N 48°51' W 123°27'0 0.0
2016-Feb-04 12:33N 48°51' W 123°27'0 0.0
2016-Feb-04 11:33N 48°51' W 123°27'0 0.0
2016-Feb-04 10:33N 48°51' W 123°27'0 0.0
2016-Feb-04 09:33N 48°51' W 123°27'0 0.0
2016-Feb-04 08:33N 48°51' W 123°27'0 0.0
2016-Feb-04 07:33N 48°51' W 123°27'0 0.0
2016-Feb-04 06:33N 48°51' W 123°27'0 0.0
2016-Feb-04 05:33N 48°51' W 123°27'0 0.0
2016-Feb-04 04:33N 48°51' W 123°27'0 0.0
2016-Feb-04 03:33N 48°51' W 123°27'0 0.0
2016-Feb-04 02:33N 48°51' W 123°27'0 0.0
2016-Feb-04 01:33N 48°51' W 123°27'0 0.0
2016-Feb-04 00:33N 48°51' W 123°27'0 0.0
2016-Feb-03 23:33N 48°51' W 123°27'0 0.0
2016-Feb-03 22:33N 48°51' W 123°27'0 0.0
2016-Feb-03 21:33N 48°51' W 123°27'2 1.5
2016-Feb-03 20:33N 48°53' W 123°27'1 1.5
2016-Feb-03 19:33N 48°52' W 123°25'0 0.3
2016-Feb-03 18:33N 48°52' W 123°26'1 1.0
2016-Feb-03 17:33N 48°53' W 123°26'2 2.0
2016-Feb-03 16:33N 48°54' W 123°28'4 3.8
2016-Feb-03 15:33N 48°51' W 123°26'1 0.5
2016-Feb-03 14:33N 48°51' W 123°27'0 0.0
2016-Feb-03 13:33N 48°51' W 123°27'0 0.0
2016-Feb-03 12:33N 48°51' W 123°27'0 0.0
2016-Feb-03 11:33N 48°51' W 123°27'0 0.0
2016-Feb-03 10:33N 48°51' W 123°27'0 0.0
2016-Feb-03 09:33N 48°51' W 123°27'0 0.0
2016-Feb-03 08:33N 48°51' W 123°27'0 0.0
2016-Feb-03 07:33N 48°51' W 123°27'0 0.0
2016-Feb-03 06:33N 48°51' W 123°27'6 6.0
2016-Feb-03 05:33N 48°48' W 123°19'4 4.3
2016-Feb-03 04:34N 48°52' W 123°18'9 9.1
2016-Feb-03 03:33N 48°59' W 123°10'2 1.7
2016-Feb-03 02:33N 49°00' W 123°08'1110.7
2016-Feb-03 01:33N 48°53' W 123°19'2 1.9
2016-Feb-03 00:33N 48°51' W 123°20'4 3.6
2016-Feb-02 23:34N 48°50' W 123°25'2 2.0
2016-Feb-02 22:33N 48°51' W 123°27'0 0.0
2016-Feb-02 21:33N 48°51' W 123°27'6 6.0
2016-Feb-02 20:34N 48°48' W 123°19'4 3.9
2016-Feb-02 19:34N 48°52' W 123°20'8 8.1
2016-Feb-02 18:33N 48°58' W 123°12'4 3.9
2016-Feb-02 17:33N 49°00' W 123°08'1110.7
2016-Feb-02 16:33N 48°53' W 123°19'2 2.0
2016-Feb-02 15:33N 48°51' W 123°20'3 3.4
2016-Feb-02 14:33N 48°50' W 123°25'2 2.0
2016-Feb-02 13:33N 48°51' W 123°27'0 0.0
2016-Feb-02 12:33N 48°51' W 123°27'0 0.0
2016-Feb-02 11:33N 48°51' W 123°27'0 0.0
2016-Feb-02 10:33N 48°51' W 123°27'0 0.0
2016-Feb-02 09:33N 48°51' W 123°27'0 0.0
2016-Feb-02 08:33N 48°51' W 123°27'0 0.0
2016-Feb-02 07:33N 48°51' W 123°27'0 0.0
2016-Feb-02 06:33N 48°51' W 123°27'6 6.0
2016-Feb-02 05:33N 48°48' W 123°19'4 3.7
2016-Feb-02 04:33N 48°52' W 123°19'9 8.7
2016-Feb-02 03:33N 48°59' W 123°11'3 2.6
2016-Feb-02 02:33N 49°00' W 123°08'1110.7
2016-Feb-02 01:33N 48°53' W 123°19'2 1.9
2016-Feb-02 00:33N 48°51' W 123°20'3 3.3
2016-Feb-01 23:34N 48°49' W 123°24'3 2.9
2016-Feb-01 22:33N 48°51' W 123°27'0 0.0
2016-Feb-01 21:34N 48°51' W 123°27'6 6.0
2016-Feb-01 20:33N 48°48' W 123°19'4 3.7
2016-Feb-01 19:34N 48°52' W 123°20'8 8.1
2016-Feb-01 18:34N 48°58' W 123°12'4 3.7
2016-Feb-01 17:33N 49°00' W 123°08'10 9.9
2016-Feb-01 16:33N 48°53' W 123°18'3 2.5
2016-Feb-01 15:33N 48°51' W 123°20'3 3.4
2016-Feb-01 14:33N 48°49' W 123°24'3 2.9
2016-Feb-01 13:33N 48°51' W 123°27'0 0.0
2016-Feb-01 12:33N 48°51' W 123°27'0 0.0
2016-Feb-01 11:32N 48°51' W 123°27'0 0.0
2016-Feb-01 10:33N 48°51' W 123°27'0 0.0
2016-Feb-01 09:33N 48°51' W 123°27'0 0.0
2016-Feb-01 08:33N 48°51' W 123°27'0 0.0
2016-Feb-01 07:33N 48°51' W 123°27'2 2.1
2016-Feb-01 06:33N 48°51' W 123°24'1413.7
2016-Feb-01 05:33N 49°00' W 123°08'8 8.4
2016-Feb-01 04:33N 48°54' W 123°16'3 3.2
2016-Feb-01 03:34N 48°52' W 123°19'1211.6
2016-Feb-01 02:34N 49°00' W 123°08'5 5.3
2016-Feb-01 01:33N 48°56' W 123°13'7 7.4
2016-Feb-01 00:33N 48°51' W 123°21'4 3.7
2016-Jan-31 23:33N 48°51' W 123°27'0 0.1
2016-Jan-31 22:33N 48°51' W 123°27'6 6.0
2016-Jan-31 21:33N 48°48' W 123°19'4 3.5
2016-Jan-31 20:34N 48°52' W 123°19'9 9.1
2016-Jan-31 19:34N 48°59' W 123°11'2 2.5
2016-Jan-31 18:33N 49°00' W 123°08'1110.5
2016-Jan-31 17:33N 48°53' W 123°19'2 2.0
2016-Jan-31 16:33N 48°51' W 123°20'3 3.4
2016-Jan-31 15:34N 48°49' W 123°24'3 2.6
2016-Jan-31 14:33N 48°51' W 123°27'0 0.0
2016-Jan-31 13:33N 48°51' W 123°27'0 0.0
2016-Jan-31 12:33N 48°51' W 123°27'0 0.0
2016-Jan-31 11:33N 48°51' W 123°27'0 0.0
2016-Jan-31 10:33N 48°51' W 123°27'0 0.0
2016-Jan-31 09:33N 48°51' W 123°27'0 0.0
2016-Jan-31 08:33N 48°51' W 123°27'0 0.0
2016-Jan-31 07:33N 48°51' W 123°27'3 3.1
2016-Jan-31 06:33N 48°51' W 123°22'3 3.5
2016-Jan-31 05:33N 48°53' W 123°18'10 9.8
2016-Jan-31 04:33N 49°00' W 123°08'0 0.0
2016-Jan-31 03:33N 49°00' W 123°08'0 0.0
2016-Jan-31 02:33N 49°00' W 123°08'1110.7
2016-Jan-31 01:33N 48°53' W 123°19'3 3.4
2016-Jan-31 00:33N 48°49' W 123°20'5 4.6
2016-Jan-30 23:33N 48°51' W 123°27'0 0.0
2016-Jan-30 22:33N 48°51' W 123°27'1 0.8
2016-Jan-30 21:33N 48°51' W 123°26'1212.1
2016-Jan-30 20:33N 48°58' W 123°11'1 0.9
2016-Jan-30 19:33N 48°58' W 123°10'9 9.3
2016-Jan-30 18:33N 48°51' W 123°20'2 1.9
2016-Jan-30 17:33N 48°53' W 123°19'1110.7
2016-Jan-30 16:33N 49°00' W 123°08'4 4.5
2016-Jan-30 15:34N 48°57' W 123°12'1111.2
2016-Jan-30 14:33N 48°51' W 123°27'0 0.1
2016-Jan-30 13:33N 48°51' W 123°27'0 0.0
2016-Jan-30 12:34N 48°51' W 123°27'0 0.0
2016-Jan-30 11:33N 48°51' W 123°27'0 0.0
2016-Jan-30 10:33N 48°51' W 123°27'0 0.0
2016-Jan-30 09:34N 48°51' W 123°27'0 0.0
2016-Jan-30 08:33N 48°51' W 123°27'0 0.0
2016-Jan-30 07:33N 48°51' W 123°27'0 0.0
2016-Jan-30 06:33N 48°51' W 123°27'6 6.1
2016-Jan-30 05:33N 48°48' W 123°19'5 4.6
2016-Jan-30 04:33N 48°53' W 123°19'8 8.4
2016-Jan-30 03:34N 48°59' W 123°10'2 2.3
2016-Jan-30 02:34N 49°00' W 123°08'1110.7
2016-Jan-30 01:33N 48°53' W 123°19'2 2.1
2016-Jan-30 00:34N 48°51' W 123°20'3 3.1
2016-Jan-29 23:33N 48°49' W 123°24'3 2.8
2016-Jan-29 22:33N 48°51' W 123°27'0 0.0
2016-Jan-29 21:33N 48°51' W 123°27'6 6.1
2016-Jan-29 20:33N 48°48' W 123°19'4 3.6
2016-Jan-29 19:33N 48°52' W 123°19'9 8.5
2016-Jan-29 18:33N 48°59' W 123°13'4 3.5
2016-Jan-29 17:33N 49°00' W 123°08'10 9.8
2016-Jan-29 16:33N 48°53' W 123°18'3 2.7
2016-Jan-29 15:33N 48°51' W 123°20'4 3.8
2016-Jan-29 14:33N 48°50' W 123°25'1 1.3
2016-Jan-29 13:33N 48°51' W 123°27'0 0.0
2016-Jan-29 12:33N 48°51' W 123°27'0 0.0
2016-Jan-29 11:33N 48°51' W 123°27'0 0.0
2016-Jan-29 10:34N 48°51' W 123°27'0 0.0
2016-Jan-29 09:33N 48°51' W 123°27'0 0.0
2016-Jan-29 08:33N 48°51' W 123°27'0 0.0
2016-Jan-29 07:33N 48°51' W 123°27'0 0.0
2016-Jan-29 06:33N 48°51' W 123°27'6 6.1
2016-Jan-29 05:33N 48°48' W 123°19'5 4.6
2016-Jan-29 04:34N 48°53' W 123°19'10 9.9
2016-Jan-29 03:34N 48°60' W 123°08'1 0.6
2016-Jan-29 02:33N 49°00' W 123°08'1110.7
2016-Jan-29 01:33N 48°53' W 123°19'  
Track history (hours):
 
Tides and Currents Weather Stations Pressure Air Temp Water Temp Dewpoint Dewpoint Depression Visibility Wind Speed Wind Dir Waves Ship Positions

Queen Of Nanaimo

Last reported at 2016-Feb-08 01:33 UTC. Time now 2016-Feb-08 02:03 UTC.
Position N 48°56' W 123°13'.

Length 130 m; draft 4 m.

Type: Passenger vessel. MMSI: 316001254.

Date/timePositionNaut miles runAvg speedWind from/ knotsBaromVisibWave heightAir tempDewpointWater temp
2016-Feb-08 01:33N 48°56' W 123°13'7 7.2
2016-Feb-08 00:33N 48°52' W 123°21'4 4.1
2016-Feb-07 23:33N 48°51' W 123°27'0 0.0
2016-Feb-07 22:33N 48°51' W 123°27'6 5.9
2016-Feb-07 21:34N 48°48' W 123°19'3 3.5
2016-Feb-07 20:33N 48°51' W 123°21'8 7.7
2016-Feb-07 19:34N 48°57' W 123°13'5 4.9
2016-Feb-07 18:34N 49°00' W 123°08'9 9.5
2016-Feb-07 17:33N 48°53' W 123°17'3 2.9
2016-Feb-07 16:33N 48°51' W 123°20'3 3.3
2016-Feb-07 15:33N 48°49' W 123°24'3 3.1
2016-Feb-07 14:33N 48°51' W 123°27'0 0.0
2016-Feb-07 13:33N 48°51' W 123°27'0 0.0
2016-Feb-07 12:33N 48°51' W 123°27'0 0.0
2016-Feb-07 11:33N 48°51' W 123°27'0 0.0
2016-Feb-07 10:33N 48°51' W 123°27'0 0.0
2016-Feb-07 09:31N 48°51' W 123°27'0 0.0
2016-Feb-07 08:33N 48°51' W 123°27'0 0.0
2016-Feb-07 07:33N 48°51' W 123°27'4 3.5
2016-Feb-07 06:34N 48°51' W 123°21'2 2.3
2016-Feb-07 05:34N 48°53' W 123°19'1110.6
2016-Feb-07 04:33N 49°00' W 123°08'0 0.0
2016-Feb-07 03:34N 49°00' W 123°08'0 0.3
2016-Feb-07 02:33N 49°00' W 123°08'1010.4
2016-Feb-07 01:33N 48°53' W 123°19'4 4.1
2016-Feb-07 00:33N 48°49' W 123°20'5 5.1
2016-Feb-06 23:33N 48°51' W 123°27'0 0.0
2016-Feb-06 22:33N 48°51' W 123°27'0 0.1
2016-Feb-06 21:34N 48°51' W 123°27'1212.3
2016-Feb-06 20:33N 48°58' W 123°12'2 1.6
2016-Feb-06 19:33N 48°59' W 123°09'1010.4
2016-Feb-06 18:34N 48°51' W 123°20'2 1.9
2016-Feb-06 17:34N 48°53' W 123°19'1110.7
2016-Feb-06 16:34N 49°00' W 123°08'3 3.3
2016-Feb-06 15:33N 48°57' W 123°10'1212.4
2016-Feb-06 14:34N 48°51' W 123°27'0 0.2
2016-Feb-06 13:33N 48°51' W 123°27'0 0.0
2016-Feb-06 12:33N 48°51' W 123°27'0 0.0
2016-Feb-06 11:33N 48°51' W 123°27'0 0.0
2016-Feb-06 07:33N 48°51' W 123°27'0 0.4
2016-Feb-06 06:33N 48°51' W 123°26'4 3.9
2016-Feb-06 05:33N 48°50' W 123°20'3 2.5
2016-Feb-06 04:33N 48°53' W 123°19'1010.4
2016-Feb-06 03:33N 49°00' W 123°08'0 0.4
2016-Feb-06 02:33N 49°00' W 123°08'1110.6
2016-Feb-06 01:33N 48°53' W 123°19'2 1.9
2016-Feb-06 00:33N 48°51' W 123°20'3 3.5
2016-Feb-05 23:34N 48°49' W 123°24'2 2.4
2016-Feb-05 22:33N 48°51' W 123°27'0 0.0
2016-Feb-05 21:33N 48°51' W 123°27'6 6.0
2016-Feb-05 20:33N 48°48' W 123°19'5 4.6
2016-Feb-05 19:34N 48°53' W 123°18'9 9.4
2016-Feb-05 18:34N 48°60' W 123°09'1 1.1
2016-Feb-05 17:33N 49°00' W 123°08'10 9.9
2016-Feb-05 16:34N 48°53' W 123°18'3 2.6
2016-Feb-05 15:33N 48°51' W 123°20'3 3.4
2016-Feb-05 14:34N 48°49' W 123°24'2 2.4
2016-Feb-05 13:33N 48°51' W 123°27'0 0.0
2016-Feb-05 12:30N 48°51' W 123°27'0 0.0
2016-Feb-05 11:29N 48°51' W 123°27'0 0.0
2016-Feb-05 09:33N 48°51' W 123°27'0 0.0
2016-Feb-05 08:33N 48°51' W 123°27'0 0.0
2016-Feb-05 07:33N 48°51' W 123°27'0 0.0
2016-Feb-05 06:33N 48°51' W 123°27'6 6.0
2016-Feb-05 05:33N 48°48' W 123°19'5 4.8
2016-Feb-05 04:33N 48°53' W 123°19'10 9.6
2016-Feb-05 03:33N 48°60' W 123°09'1 0.9
2016-Feb-05 02:33N 49°00' W 123°08'1110.7
2016-Feb-05 01:33N 48°53' W 123°19'2 1.9
2016-Feb-05 00:33N 48°51' W 123°20'4 3.6
2016-Feb-04 23:34N 48°50' W 123°25'2 1.7
2016-Feb-04 22:33N 48°51' W 123°27'0 0.0
2016-Feb-04 21:33N 48°51' W 123°27'6 6.1
2016-Feb-04 20:34N 48°48' W 123°19'5 4.6
2016-Feb-04 19:34N 48°53' W 123°19'9 9.2
2016-Feb-04 18:34N 48°59' W 123°09'1 1.4
2016-Feb-04 17:33N 49°00' W 123°08'1110.5
2016-Feb-04 16:33N 48°53' W 123°19'2 2.0
2016-Feb-04 15:33N 48°51' W 123°20'4 3.6
2016-Feb-04 14:33N 48°50' W 123°25'2 1.9
2016-Feb-04 13:33N 48°51' W 123°27'0 0.0
2016-Feb-04 12:33N 48°51' W 123°27'0 0.0
2016-Feb-04 11:33N 48°51' W 123°27'0 0.0
2016-Feb-04 10:33N 48°51' W 123°27'0 0.0
2016-Feb-04 09:33N 48°51' W 123°27'0 0.0
2016-Feb-04 08:33N 48°51' W 123°27'0 0.0
2016-Feb-04 07:33N 48°51' W 123°27'0 0.0
2016-Feb-04 06:33N 48°51' W 123°27'0 0.0
2016-Feb-04 05:33N 48°51' W 123°27'0 0.0
2016-Feb-04 04:33N 48°51' W 123°27'0 0.0
2016-Feb-04 03:33N 48°51' W 123°27'0 0.0
2016-Feb-04 02:33N 48°51' W 123°27'0 0.0
2016-Feb-04 01:33N 48°51' W 123°27'0 0.0
2016-Feb-04 00:33N 48°51' W 123°27'0 0.0
2016-Feb-03 23:33N 48°51' W 123°27'0 0.0
2016-Feb-03 22:33N 48°51' W 123°27'0 0.0
2016-Feb-03 21:33N 48°51' W 123°27'2 1.5
2016-Feb-03 20:33N 48°53' W 123°27'1 1.5
2016-Feb-03 19:33N 48°52' W 123°25'0 0.3
2016-Feb-03 18:33N 48°52' W 123°26'1 1.0
2016-Feb-03 17:33N 48°53' W 123°26'2 2.0
2016-Feb-03 16:33N 48°54' W 123°28'4 3.8
2016-Feb-03 15:33N 48°51' W 123°26'1 0.5
2016-Feb-03 14:33N 48°51' W 123°27'0 0.0
2016-Feb-03 13:33N 48°51' W 123°27'0 0.0
2016-Feb-03 12:33N 48°51' W 123°27'0 0.0
2016-Feb-03 11:33N 48°51' W 123°27'0 0.0
2016-Feb-03 10:33N 48°51' W 123°27'0 0.0
2016-Feb-03 09:33N 48°51' W 123°27'0 0.0
2016-Feb-03 08:33N 48°51' W 123°27'0 0.0
2016-Feb-03 07:33N 48°51' W 123°27'0 0.0
2016-Feb-03 06:33N 48°51' W 123°27'6 6.0
2016-Feb-03 05:33N 48°48' W 123°19'4 4.3
2016-Feb-03 04:34N 48°52' W 123°18'9 9.1
2016-Feb-03 03:33N 48°59' W 123°10'2 1.7
2016-Feb-03 02:33N 49°00' W 123°08'1110.7
2016-Feb-03 01:33N 48°53' W 123°19'2 1.9
2016-Feb-03 00:33N 48°51' W 123°20'4 3.6
2016-Feb-02 23:34N 48°50' W 123°25'2 2.0
2016-Feb-02 22:33N 48°51' W 123°27'0 0.0
2016-Feb-02 21:33N 48°51' W 123°27'6 6.0
2016-Feb-02 20:34N 48°48' W 123°19'4 3.9
2016-Feb-02 19:34N 48°52' W 123°20'8 8.1
2016-Feb-02 18:33N 48°58' W 123°12'4 3.9
2016-Feb-02 17:33N 49°00' W 123°08'1110.7
2016-Feb-02 16:33N 48°53' W 123°19'2 2.0
2016-Feb-02 15:33N 48°51' W 123°20'3 3.4
2016-Feb-02 14:33N 48°50' W 123°25'2 2.0
2016-Feb-02 13:33N 48°51' W 123°27'0 0.0
2016-Feb-02 12:33N 48°51' W 123°27'0 0.0
2016-Feb-02 11:33N 48°51' W 123°27'0 0.0
2016-Feb-02 10:33N 48°51' W 123°27'0 0.0
2016-Feb-02 09:33N 48°51' W 123°27'0 0.0
2016-Feb-02 08:33N 48°51' W 123°27'0 0.0
2016-Feb-02 07:33N 48°51' W 123°27'0 0.0
2016-Feb-02 06:33N 48°51' W 123°27'6 6.0
2016-Feb-02 05:33N 48°48' W 123°19'4 3.7
2016-Feb-02 04:33N 48°52' W 123°19'9 8.7
2016-Feb-02 03:33N 48°59' W 123°11'3 2.6
2016-Feb-02 02:33N 49°00' W 123°08'1110.7
2016-Feb-02 01:33N 48°53' W 123°19'2 1.9
2016-Feb-02 00:33N 48°51' W 123°20'3 3.3
2016-Feb-01 23:34N 48°49' W 123°24'3 2.9
2016-Feb-01 22:33N 48°51' W 123°27'0 0.0
2016-Feb-01 21:34N 48°51' W 123°27'6 6.0
2016-Feb-01 20:33N 48°48' W 123°19'4 3.7
2016-Feb-01 19:34N 48°52' W 123°20'8 8.1
2016-Feb-01 18:34N 48°58' W 123°12'4 3.7
2016-Feb-01 17:33N 49°00' W 123°08'10 9.9
2016-Feb-01 16:33N 48°53' W 123°18'3 2.5
2016-Feb-01 15:33N 48°51' W 123°20'3 3.4
2016-Feb-01 14:33N 48°49' W 123°24'3 2.9
2016-Feb-01 13:33N 48°51' W 123°27'0 0.0
2016-Feb-01 12:33N 48°51' W 123°27'0 0.0
2016-Feb-01 11:32N 48°51' W 123°27'0 0.0
2016-Feb-01 10:33N 48°51' W 123°27'0 0.0
2016-Feb-01 09:33N 48°51' W 123°27'0 0.0
2016-Feb-01 08:33N 48°51' W 123°27'0 0.0
2016-Feb-01 07:33N 48°51' W 123°27'2 2.1
2016-Feb-01 06:33N 48°51' W 123°24'1413.7
2016-Feb-01 05:33N 49°00' W 123°08'8 8.4
2016-Feb-01 04:33N 48°54' W 123°16'3 3.2
2016-Feb-01 03:34N 48°52' W 123°19'1211.6
2016-Feb-01 02:34N 49°00' W 123°08'5 5.3
2016-Feb-01 01:33N 48°56' W 123°13'7 7.4
2016-Feb-01 00:33N 48°51' W 123°21'4 3.7
2016-Jan-31 23:33N 48°51' W 123°27'0 0.1
2016-Jan-31 22:33N 48°51' W 123°27'6 6.0
2016-Jan-31 21:33N 48°48' W 123°19'4 3.5
2016-Jan-31 20:34N 48°52' W 123°19'9 9.1
2016-Jan-31 19:34N 48°59' W 123°11'2 2.5
2016-Jan-31 18:33N 49°00' W 123°08'1110.5
2016-Jan-31 17:33N 48°53' W 123°19'2 2.0
2016-Jan-31 16:33N 48°51' W 123°20'3 3.4
2016-Jan-31 15:34N 48°49' W 123°24'3 2.6
2016-Jan-31 14:33N 48°51' W 123°27'0 0.0
2016-Jan-31 13:33N 48°51' W 123°27'0 0.0
2016-Jan-31 12:33N 48°51' W 123°27'0 0.0
2016-Jan-31 11:33N 48°51' W 123°27'0 0.0
2016-Jan-31 10:33N 48°51' W 123°27'0 0.0
2016-Jan-31 09:33N 48°51' W 123°27'0 0.0
2016-Jan-31 08:33N 48°51' W 123°27'0 0.0
2016-Jan-31 07:33N 48°51' W 123°27'3 3.1
2016-Jan-31 06:33N 48°51' W 123°22'3 3.5
2016-Jan-31 05:33N 48°53' W 123°18'10 9.8
2016-Jan-31 04:33N 49°00' W 123°08'0 0.0
2016-Jan-31 03:33N 49°00' W 123°08'0 0.0
2016-Jan-31 02:33N 49°00' W 123°08'1110.7
2016-Jan-31 01:33N 48°53' W 123°19'3 3.4
2016-Jan-31 00:33N 48°49' W 123°20'5 4.6
2016-Jan-30 23:33N 48°51' W 123°27'0 0.0
2016-Jan-30 22:33N 48°51' W 123°27'1 0.8
2016-Jan-30 21:33N 48°51' W 123°26'1212.1
2016-Jan-30 20:33N 48°58' W 123°11'1 0.9
2016-Jan-30 19:33N 48°58' W 123°10'9 9.3
2016-Jan-30 18:33N 48°51' W 123°20'2 1.9
2016-Jan-30 17:33N 48°53' W 123°19'1110.7
2016-Jan-30 16:33N 49°00' W 123°08'4 4.5
2016-Jan-30 15:34N 48°57' W 123°12'1111.2
2016-Jan-30 14:33N 48°51' W 123°27'0 0.1
2016-Jan-30 13:33N 48°51' W 123°27'0 0.0
2016-Jan-30 12:34N 48°51' W 123°27'0 0.0
2016-Jan-30 11:33N 48°51' W 123°27'0 0.0
2016-Jan-30 10:33N 48°51' W 123°27'0 0.0
2016-Jan-30 09:34N 48°51' W 123°27'0 0.0
2016-Jan-30 08:33N 48°51' W 123°27'0 0.0
2016-Jan-30 07:33N 48°51' W 123°27'0 0.0
2016-Jan-30 06:33N 48°51' W 123°27'6 6.1
2016-Jan-30 05:33N 48°48' W 123°19'5 4.6
2016-Jan-30 04:33N 48°53' W 123°19'8 8.4
2016-Jan-30 03:34N 48°59' W 123°10'2 2.3
2016-Jan-30 02:34N 49°00' W 123°08'1110.7
2016-Jan-30 01:33N 48°53' W 123°19'2 2.1
2016-Jan-30 00:34N 48°51' W 123°20'3 3.1
2016-Jan-29 23:33N 48°49' W 123°24'3 2.8
2016-Jan-29 22:33N 48°51' W 123°27'0 0.0
2016-Jan-29 21:33N 48°51' W 123°27'6 6.1
2016-Jan-29 20:33N 48°48' W 123°19'4 3.6
2016-Jan-29 19:33N 48°52' W 123°19'9 8.5
2016-Jan-29 18:33N 48°59' W 123°13'4 3.5
2016-Jan-29 17:33N 49°00' W 123°08'10 9.8
2016-Jan-29 16:33N 48°53' W 123°18'3 2.7
2016-Jan-29 15:33N 48°51' W 123°20'4 3.8
2016-Jan-29 14:33N 48°50' W 123°25'1 1.3
2016-Jan-29 13:33N 48°51' W 123°27'0 0.0
2016-Jan-29 12:33N 48°51' W 123°27'0 0.0
2016-Jan-29 11:33N 48°51' W 123°27'0 0.0
2016-Jan-29 10:34N 48°51' W 123°27'0 0.0
2016-Jan-29 09:33N 48°51' W 123°27'0 0.0
2016-Jan-29 08:33N 48°51' W 123°27'0 0.0
2016-Jan-29 07:33N 48°51' W 123°27'0 0.0
2016-Jan-29 06:33N 48°51' W 123°27'6 6.1
2016-Jan-29 05:33N 48°48' W 123°19'5 4.6
2016-Jan-29 04:34N 48°53' W 123°19'10 9.9
2016-Jan-29 03:34N 48°60' W 123°08'1 0.6
2016-Jan-29 02:33N 49°00' W 123°08'1110.7
2016-Jan-29 01:33N 48°53' W 123°19'  

Dump ship's entire track history